Terminal Aerodrome Forecast
Issued by NWS

Home | Current Version | Previous Version | Text Only | Print | Product List | Glossary On
Versions: 1 2 3 4 5 6 7 8 9 10 11 12 13 14 15 16 17 18 19 20
000
FTUS46 KSTO 181131
TAFRDD
TAF
KRDD 181131Z 1812/1912 VRB05KT 3SM -SHRA BR BKN015 OVC040
     FM181700 18011KT 5SM -RA OVC020
      TEMPO 1820/1824 18015G25KT 2SM RA OVC012=

USA.gov is the U.S. government's official web portal to all federal, state and local government web resources and services.